Time;durP1;ratioP1;P1;durP2;ratioP2;P2;SDS_P1;SDS_P2;PMS_P1;PMS_P2;Temp;Humidity;BMP_temperature;BMP_pressure;BME280_temperature;BME280_humidity;BME280_pressure;Samples;Min_cycle;Max_cycle;Signal;HPM_P1;HPM_P2
2021/04/05 00:00:37;;;;;;;23.48;12.20;;;5.90;87.70;;;;;;5156588;27;20039;-82
2021/04/05 00:03:03;;;;;;;21.08;11.80;;;5.90;87.70;;;;;;5156811;27;20059;-82
2021/04/05 00:05:36;;;;;;;25.30;13.15;;;5.90;87.90;;;;;;5157191;27;20103;-82
2021/04/05 00:08:04;;;;;;;27.50;12.65;;;5.90;88.00;;;;;;5137687;27;20038;-81
2021/04/05 00:10:36;;;;;;;22.00;12.02;;;5.90;88.00;;;;;;5157091;27;20084;-82
2021/04/05 00:13:06;;;;;;;22.08;12.30;;;5.90;88.00;;;;;;5156852;27;20046;-82
2021/04/05 00:15:32;;;;;;;26.58;12.95;;;5.90;88.00;;;;;;5156271;27;20096;-82
2021/04/05 00:17:58;;;;;;;29.13;13.07;;;5.90;87.90;;;;;;5155970;27;20050;-82
2021/04/05 00:20:29;;;;;;;26.58;12.27;;;5.90;87.90;;;;;;5156078;27;20050;-82
2021/04/05 00:22:55;;;;;;;25.63;11.95;;;6.00;88.20;;;;;;5156335;27;20053;-82
2021/04/05 00:25:21;;;;;;;28.85;13.65;;;6.00;88.30;;;;;;5156953;27;20046;-82
2021/04/05 00:27:47;;;;;;;34.67;14.40;;;6.00;88.40;;;;;;5155359;27;20524;-82
2021/04/05 00:30:24;;;;;;;34.22;15.48;;;6.00;88.50;;;;;;5156105;27;20058;-81
2021/04/05 00:32:50;;;;;;;41.03;15.45;;;6.00;88.80;;;;;;5156236;27;20078;-81
2021/04/05 00:35:20;;;;;;;29.92;13.68;;;6.10;89.00;;;;;;5155429;27;20413;-80
2021/04/05 00:37:50;;;;;;;35.67;14.68;;;6.10;89.20;;;;;;5156175;27;20054;-81
2021/04/05 00:40:20;;;;;;;30.50;12.82;;;6.20;89.30;;;;;;5156574;27;20066;-81
2021/04/05 00:42:46;;;;;;;35.65;12.20;;;6.20;89.60;;;;;;5155354;27;20049;-81
2021/04/05 00:45:16;;;;;;;36.95;13.27;;;6.30;89.70;;;;;;5156481;27;20095;-81
2021/04/05 00:47:48;;;;;;;37.60;13.63;;;6.30;89.70;;;;;;5155887;27;20054;-81
2021/04/05 00:50:17;;;;;;;34.60;14.10;;;6.40;89.80;;;;;;5154859;27;20094;-81
2021/04/05 00:52:44;;;;;;;36.75;12.90;;;6.40;89.80;;;;;;5155569;27;20118;-81
2021/04/05 00:55:11;;;;;;;36.47;12.57;;;6.50;90.00;;;;;;5156170;27;20406;-81
2021/04/05 00:57:37;;;;;;;32.45;12.73;;;6.50;90.00;;;;;;5155223;27;20047;-81
2021/04/05 01:00:14;;;;;;;36.00;12.63;;;6.60;90.10;;;;;;5156039;27;20406;-81
2021/04/05 01:02:40;;;;;;;37.28;12.70;;;6.70;90.20;;;;;;5155411;27;20123;-81
2021/04/05 01:05:07;;;;;;;35.03;12.20;;;6.70;90.20;;;;;;5155667;27;20042;-81
2021/04/05 01:07:33;;;;;;;31.92;12.77;;;6.70;90.10;;;;;;5155995;27;20512;-81
2021/04/05 01:09:59;;;;;;;37.75;12.75;;;6.80;90.10;;;;;;5154791;27;20447;-81
2021/04/05 01:12:25;;;;;;;36.65;12.20;;;6.80;90.10;;;;;;5155937;27;20050;-81
2021/04/05 01:14:50;;;;;;;36.88;11.55;;;6.80;90.00;;;;;;5155661;27;20091;-81
2021/04/05 01:17:16;;;;;;;44.45;12.80;;;6.90;90.10;;;;;;5154508;27;20057;-81
2021/04/05 01:19:42;;;;;;;37.15;12.68;;;6.90;90.10;;;;;;5155020;27;20070;-81
2021/04/05 01:22:08;;;;;;;38.47;12.52;;;7.00;90.10;;;;;;5155429;27;20439;-81
2021/04/05 01:24:34;;;;;;;34.83;11.77;;;7.00;90.10;;;;;;5154666;27;20130;-81
2021/04/05 01:26:59;;;;;;;39.38;12.00;;;7.00;90.40;;;;;;5155404;27;20070;-81
2021/04/05 01:29:25;;;;;;;35.45;11.80;;;7.10;90.10;;;;;;5155425;27;20073;-81
2021/04/05 01:31:51;;;;;;;36.40;12.15;;;7.10;90.00;;;;;;5153985;27;20137;-81
2021/04/05 01:34:16;;;;;;;32.00;11.30;;;7.20;89.90;;;;;;5155449;27;20042;-81
2021/04/05 01:36:42;;;;;;;31.40;11.52;;;7.20;89.70;;;;;;5155187;27;20550;-83
2021/04/05 01:39:08;;;;;;;38.90;11.57;;;7.30;89.40;;;;;;5154628;27;20448;-81
2021/04/05 01:41:33;;;;;;;36.60;11.77;;;7.30;89.10;;;;;;5155484;27;20043;-81
2021/04/05 01:43:59;;;;;;;27.38;11.07;;;7.30;88.90;;;;;;5155174;27;20050;-81
2021/04/05 01:46:28;;;;;;;34.67;11.63;;;7.40;88.80;;;;;;5154394;27;20065;-80
2021/04/05 01:48:58;;;;;;;30.55;11.55;;;7.40;88.60;;;;;;5154615;27;20046;-81
2021/04/05 01:51:24;;;;;;;32.95;11.23;;;7.40;88.40;;;;;;5154457;27;20074;-81
2021/04/05 01:53:51;;;;;;;34.22;11.05;;;7.40;88.30;;;;;;5153933;27;20073;-81
2021/04/05 01:56:18;;;;;;;36.28;10.73;;;7.40;88.10;;;;;;5155031;27;20051;-81
2021/04/05 01:58:46;;;;;;;32.53;10.75;;;7.50;87.90;;;;;;5154229;27;20047;-81
2021/04/05 02:01:17;;;;;;;32.15;10.90;;;7.50;87.90;;;;;;5155019;27;20188;-81
2021/04/05 02:03:43;;;;;;;31.73;11.30;;;7.50;87.80;;;;;;5154604;27;20187;-82
2021/04/05 02:06:13;;;;;;;31.40;10.23;;;7.50;87.70;;;;;;5154136;27;20042;-81
2021/04/05 02:08:40;;;;;;;34.28;10.93;;;7.50;87.60;;;;;;5155472;27;20389;-81
2021/04/05 02:11:18;;;;;;;26.27;10.40;;;7.50;87.60;;;;;;5154556;27;20175;-82
2021/04/05 02:13:46;;;;;;;31.08;10.68;;;7.60;87.60;;;;;;5153619;27;20043;-81
2021/04/05 02:16:15;;;;;;;34.08;10.23;;;7.60;87.50;;;;;;5154244;27;20129;-81
2021/04/05 02:18:41;;;;;;;34.53;10.02;;;7.60;87.40;;;;;;5154587;27;20099;-82
2021/04/05 02:21:26;;;;;;;24.35;9.38;;;7.60;88.10;;;;;;5153798;27;20042;-81
2021/04/05 02:23:54;;;;;;;27.00;9.15;;;7.60;87.20;;;;;;5154482;27;20043;-81
2021/04/05 02:26:22;;;;;;;34.20;10.30;;;7.60;87.10;;;;;;5154734;27;20103;-81
2021/04/05 02:28:51;;;;;;;30.05;9.50;;;7.60;87.10;;;;;;5153588;27;20070;-81
2021/04/05 02:31:19;;;;;;;28.23;9.70;;;7.60;87.00;;;;;;5153992;27;20047;-82
2021/04/05 02:33:47;;;;;;;29.20;10.20;;;7.60;86.90;;;;;;5153973;27;20043;-81
2021/04/05 02:36:16;;;;;;;25.92;9.50;;;7.70;86.90;;;;;;5153906;27;20054;-82
2021/04/05 02:38:46;;;;;;;27.08;9.00;;;7.60;86.80;;;;;;5154456;27;20046;-82
2021/04/05 02:41:14;;;;;;;29.15;8.98;;;7.70;86.70;;;;;;5153603;27;20043;-81
2021/04/05 02:43:41;;;;;;;32.72;9.32;;;7.70;86.70;;;;;;5154274;27;20419;-82
2021/04/05 02:46:11;;;;;;;26.45;8.90;;;7.70;86.50;;;;;;5154390;27;20046;-82
2021/04/05 02:48:42;;;;;;;29.13;9.20;;;7.70;86.40;;;;;;5153621;27;20561;-82
2021/04/05 02:51:08;;;;;;;28.40;9.23;;;7.70;86.40;;;;;;5154440;27;20057;-82
2021/04/05 02:53:40;;;;;;;27.70;8.82;;;7.70;86.40;;;;;;5154166;27;20051;-82
2021/04/05 02:56:08;;;;;;;27.25;7.85;;;7.70;86.30;;;;;;5153320;27;20039;-81
2021/04/05 02:58:43;;;;;;;27.02;7.80;;;7.70;86.30;;;;;;5154176;27;20054;-81
2021/04/05 03:01:09;;;;;;;26.73;7.75;;;7.70;86.20;;;;;;5154143;27;20050;-81
2021/04/05 03:03:42;;;;;;;25.17;9.02;;;7.80;86.20;;;;;;5153385;27;20053;-82
2021/04/05 03:06:11;;;;;;;24.45;7.90;;;7.70;86.20;;;;;;5154277;27;20047;-82
2021/04/05 03:08:37;;;;;;;31.48;7.95;;;7.80;86.30;;;;;;5154094;27;20067;-81
2021/04/05 03:11:07;;;;;;;32.58;8.88;;;7.80;86.20;;;;;;5153095;27;20482;-81
2021/04/05 03:13:35;;;;;;;29.85;8.32;;;7.80;86.30;;;;;;5154155;27;20050;-81
2021/04/05 03:16:05;;;;;;;26.35;8.27;;;7.80;86.30;;;;;;5153922;27;20069;-83
2021/04/05 03:18:35;;;;;;;25.58;8.40;;;7.80;86.30;;;;;;5154133;27;20042;-82
2021/04/05 03:21:04;;;;;;;25.70;8.57;;;7.80;86.40;;;;;;5153564;27;20443;-82
2021/04/05 03:23:30;;;;;;;29.88;8.27;;;7.80;86.60;;;;;;5153212;27;20050;-82
2021/04/05 03:25:56;;;;;;;25.80;8.40;;;7.80;86.70;;;;;;5153821;27;20047;-83
2021/04/05 03:28:22;;;;;;;28.92;9.38;;;7.80;86.90;;;;;;5153953;27;20547;-83
2021/04/05 03:30:55;;;;;;;32.00;8.98;;;7.80;87.10;;;;;;5156326;27;20099;-82
2021/04/05 03:33:34;;;;;;;27.23;8.27;;;7.80;87.60;;;;;;5157982;27;20047;-82
2021/04/05 03:36:07;;;;;;;27.27;8.45;;;7.80;87.80;;;;;;5157459;27;20405;-83
2021/04/05 03:38:35;;;;;;;28.20;7.85;;;7.80;88.10;;;;;;5157113;27;20062;-82
2021/04/05 03:41:04;;;;;;;24.15;7.68;;;7.80;88.20;;;;;;5157580;27;20074;-82
2021/04/05 03:43:37;;;;;;;30.90;7.70;;;7.70;88.30;;;;;;5157659;27;20133;-83
2021/04/05 03:46:07;;;;;;;21.95;7.07;;;7.80;88.40;;;;;;5156643;27;20047;-83
2021/04/05 03:48:43;;;;;;;14.85;5.20;;;7.70;88.50;;;;;;5157973;27;20043;-83
2021/04/05 03:51:16;;;;;;;22.45;5.30;;;7.70;88.30;;;;;;5157330;27;20054;-83
2021/04/05 03:53:58;;;;;;;21.80;5.65;;;7.60;88.20;;;;;;5157417;27;20053;-83
2021/04/05 03:56:30;;;;;;;22.17;4.55;;;7.60;88.10;;;;;;5157456;27;20051;-83
2021/04/05 03:59:03;;;;;;;16.95;3.65;;;7.50;88.00;;;;;;5156540;27;20066;-83
2021/04/05 04:01:30;;;;;;;11.88;3.80;;;7.50;87.80;;;;;;5157472;27;20051;-84
2021/04/05 04:04:02;;;;;;;17.17;3.80;;;7.40;87.80;;;;;;5157037;27;20570;-83
2021/04/05 04:06:37;;;;;;;18.85;3.83;;;7.30;87.90;;;;;;5156442;27;20053;-83
2021/04/05 04:09:04;;;;;;;14.77;3.63;;;7.30;88.00;;;;;;5156809;27;20510;-84
2021/04/05 04:11:33;;;;;;;13.65;3.03;;;7.20;88.00;;;;;;5157225;27;20051;-82
2021/04/05 04:14:03;;;;;;;20.30;3.63;;;7.10;88.00;;;;;;5156141;27;20053;-83
2021/04/05 04:16:30;;;;;;;11.07;2.65;;;7.10;88.10;;;;;;5138558;27;20405;-83
2021/04/05 04:19:00;;;;;;;11.45;2.58;;;7.10;88.20;;;;;;5156509;27;20458;-83
2021/04/05 04:21:27;;;;;;;11.50;2.10;;;7.00;88.20;;;;;;5156688;27;20054;-82
2021/04/05 04:23:53;;;;;;;10.73;2.70;;;7.00;87.90;;;;;;5156624;27;20147;-82
2021/04/05 04:26:20;;;;;;;7.38;1.90;;;6.90;88.00;;;;;;5157157;27;20463;-84
2021/04/05 04:28:45;;;;;;;8.05;2.05;;;6.90;87.90;;;;;;5155524;27;20068;-83
2021/04/05 04:31:11;;;;;;;6.72;2.00;;;6.90;88.00;;;;;;5156561;27;20050;-83
2021/04/05 04:33:38;;;;;;;7.07;1.45;;;6.80;88.10;;;;;;5155611;27;20042;-85
2021/04/05 04:36:06;;;;;;;5.18;1.38;;;6.70;88.20;;;;;;5156517;27;20521;-83
2021/04/05 04:38:32;;;;;;;6.78;1.30;;;6.60;88.20;;;;;;5156508;27;20111;-82
2021/04/05 04:40:57;;;;;;;8.35;1.67;;;6.50;88.20;;;;;;5154770;27;20490;-83
2021/04/05 04:43:23;;;;;;;5.93;1.10;;;6.50;88.60;;;;;;5156319;27;20047;-83
2021/04/05 04:45:49;;;;;;;4.63;1.40;;;6.40;88.50;;;;;;5156003;27;20511;-82
2021/04/05 04:48:15;;;;;;;4.80;1.02;;;6.40;88.50;;;;;;5136781;27;20043;-84
2021/04/05 04:50:41;;;;;;;5.00;1.20;;;6.40;88.60;;;;;;5156114;27;20133;-83
2021/04/05 04:53:07;;;;;;;3.25;0.80;;;6.30;88.90;;;;;;5156135;27;20054;-83
2021/04/05 04:55:34;;;;;;;6.65;1.20;;;6.30;88.80;;;;;;5155429;27;20054;-83
2021/04/05 04:58:02;;;;;;;6.90;1.23;;;6.30;88.60;;;;;;5155971;27;20379;-82
2021/04/05 05:00:32;;;;;;;5.50;1.15;;;6.30;89.00;;;;;;5156189;27;20446;-82
2021/04/05 05:02:58;;;;;;;4.13;0.90;;;6.20;89.20;;;;;;5155109;27;20077;-82
2021/04/05 05:05:29;;;;;;;4.82;0.90;;;6.20;89.10;;;;;;5155839;27;20051;-83
2021/04/05 05:07:58;;;;;;;6.90;1.23;;;6.20;89.10;;;;;;5155592;27;20486;-82
2021/04/05 05:10:25;;;;;;;5.80;1.40;;;6.10;89.30;;;;;;5155357;27;20054;-82
2021/04/05 05:12:51;;;;;;;7.47;1.05;;;6.10;89.60;;;;;;5155813;27;20050;-83
2021/04/05 05:15:17;;;;;;;7.43;1.00;;;6.10;89.50;;;;;;5155900;27;20099;-84
2021/04/05 05:17:46;;;;;;;5.45;1.00;;;6.10;89.50;;;;;;5154845;27;20096;-83
2021/04/05 05:20:13;;;;;;;4.80;0.98;;;6.10;89.40;;;;;;5155578;27;20509;-82
2021/04/05 05:22:44;;;;;;;6.93;1.40;;;6.00;89.00;;;;;;5155801;27;20043;-82
2021/04/05 05:25:14;;;;;;;3.65;0.90;;;5.90;89.10;;;;;;5155599;27;20039;-81
2021/04/05 05:27:43;;;;;;;3.38;0.80;;;5.90;89.30;;;;;;5155664;27;20042;-82
2021/04/05 05:30:20;;;;;;;4.57;0.85;;;5.80;89.30;;;;;;5154887;27;20053;-81
2021/04/05 05:32:52;;;;;;;4.47;0.80;;;5.80;89.30;;;;;;5155323;27;20050;-81
2021/04/05 05:35:18;;;;;;;5.65;1.08;;;5.70;89.20;;;;;;5155630;27;20047;-81
2021/04/05 05:37:45;;;;;;;3.80;0.75;;;5.60;89.30;;;;;;5154484;27;20095;-81
2021/04/05 05:40:24;;;;;;;3.45;0.73;;;5.50;89.70;;;;;;5155177;27;20043;-81
2021/04/05 05:43:28;;;;;;;3.65;0.60;;;5.50;90.00;;;;;;5154939;27;20561;-82
2021/04/05 05:52:47;;;;;;;;;;;5.40;89.60;;;;;;4963011;28;20061;-81
2021/04/05 05:56:02;;;;;;;4.40;0.80;;;5.30;88.90;;;;;;4993741;28;19921;-81
2021/04/05 05:58:39;;;;;;;;;;;5.30;89.90;;;;;;4993639;28;20462;-80
2021/04/05 06:02:02;;;;;;;7.18;1.30;;;5.20;89.30;;;;;;5006867;28;19921;-82
2021/04/05 06:05:09;;;;;;;7.00;1.55;;;5.20;89.70;;;;;;4993760;28;20403;-82
2021/04/05 06:08:11;;;;;;;5.60;1.35;;;5.10;89.40;;;;;;4993784;28;20054;-81
2021/04/05 06:11:15;;;;;;;7.18;2.03;;;5.10;90.10;;;;;;4993571;28;20113;-82
2021/04/05 06:14:01;;;;;;;5.70;1.23;;;5.10;90.10;;;;;;4992752;28;20057;-82
2021/04/05 06:17:01;;;;;;;8.93;1.30;;;5.10;90.00;;;;;;4989255;28;20137;-82
2021/04/05 06:19:51;;;;;;;6.18;1.08;;;5.10;90.00;;;;;;4993277;28;20117;-83
2021/04/05 06:22:57;;;;;;;9.30;1.25;;;5.00;90.10;;;;;;4993683;28;20054;-83
2021/04/05 06:25:41;;;;;;;8.63;1.63;;;5.00;90.10;;;;;;4993634;28;20082;-83
2021/04/05 06:28:25;;;;;;;10.82;1.42;;;5.00;90.20;;;;;;4988256;28;20379;-82
2021/04/05 06:31:13;;;;;;;12.77;1.80;;;5.00;90.10;;;;;;4992190;28;20050;-82
2021/04/05 06:34:30;;;;;;;8.48;1.60;;;5.00;90.20;;;;;;4990200;28;20088;-82
2021/04/05 06:44:52;;;;;;;10.70;1.98;;;5.10;90.00;;;;;;4951157;29;20043;-82
2021/04/05 06:48:03;;;;;;;15.00;2.42;;;5.10;89.40;;;;;;4951068;29;20054;-81
2021/04/05 06:50:43;;;;;;;11.65;2.20;;;5.00;88.40;;;;;;4980743;28;20058;-82
2021/04/05 06:53:24;;;;;;;15.70;2.13;;;5.00;88.40;;;;;;5013004;28;20085;-81
2021/04/05 06:55:57;;;;;;;15.07;2.22;;;5.00;87.50;;;;;;5011725;28;20482;-82
2021/04/05 06:58:28;;;;;;;15.80;2.13;;;4.90;87.00;;;;;;5012993;28;20077;-81
2021/04/05 07:00:58;;;;;;;12.02;2.33;;;4.90;86.60;;;;;;5012625;28;20050;-82
2021/04/05 07:03:26;;;;;;;14.32;2.30;;;4.90;86.50;;;;;;5014021;28;20088;-82
2021/04/05 07:06:23;;;;;;;17.20;2.55;;;4.90;86.60;;;;;;5016639;28;20556;-83
2021/04/05 07:09:15;;;;;;;12.07;2.00;;;4.90;85.80;;;;;;5030337;28;20042;-80
2021/04/05 07:11:54;;;;;;;10.63;2.10;;;4.90;86.10;;;;;;5034942;28;20049;-81
2021/04/05 07:14:38;;;;;;;15.80;2.42;;;4.90;86.00;;;;;;5034228;28;20087;-81
2021/04/05 07:17:30;;;;;;;12.02;1.95;;;4.90;85.40;;;;;;5033782;28;20048;-79
2021/04/05 07:19:59;;;;;;;9.45;1.92;;;4.90;85.70;;;;;;5005052;28;20436;-80
2021/04/05 07:22:45;;;;;;;19.13;2.45;;;4.90;85.70;;;;;;5033038;28;20481;-81
2021/04/05 07:25:35;;;;;;;16.02;2.55;;;4.90;85.30;;;;;;5034554;28;20184;-80
2021/04/05 07:28:22;;;;;;;11.57;1.85;;;4.90;85.30;;;;;;5035275;28;20095;-82
2021/04/05 07:30:57;;;;;;;12.65;1.73;;;4.80;86.10;;;;;;5034640;28;20053;-81
2021/04/05 07:33:38;;;;;;;13.00;1.90;;;4.80;86.70;;;;;;5034450;28;20494;-82
2021/04/05 07:36:27;;;;;;;10.15;1.85;;;4.80;87.30;;;;;;5035396;28;20486;-80
2021/04/05 07:39:09;;;;;;;10.98;1.73;;;4.80;86.60;;;;;;5035308;28;20128;-82
2021/04/05 07:41:47;;;;;;;11.02;2.13;;;4.80;87.20;;;;;;5035426;28;20104;-83
2021/04/05 07:44:37;;;;;;;10.80;1.70;;;4.70;87.40;;;;;;5035083;28;20088;-83
2021/04/05 07:47:36;;;;;;;9.75;1.63;;;4.70;87.00;;;;;;5033954;28;20076;-83
2021/04/05 07:50:10;;;;;;;10.25;1.45;;;4.70;86.90;;;;;;5034894;28;20876;-83
2021/04/05 07:52:42;;;;;;;;;;;4.60;86.90;;;;;;5034670;28;20053;-81
2021/04/05 07:55:12;;;;;;;6.82;1.63;;;4.60;85.50;;;;;;5035582;28;19924;-81
2021/04/05 07:57:55;;;;;;;5.50;1.00;;;4.60;87.20;;;;;;5033424;28;20465;-81
2021/04/05 08:00:44;;;;;;;5.88;1.20;;;4.50;87.00;;;;;;5032880;28;20056;-81
2021/04/05 08:03:22;;;;;;;5.03;1.10;;;4.40;86.80;;;;;;5031545;28;20049;-81
2021/04/05 08:06:09;;;;;;;9.75;1.67;;;4.30;87.60;;;;;;5032760;28;20133;-81
2021/04/05 08:09:02;;;;;;;14.45;1.75;;;4.20;87.10;;;;;;5032163;28;20100;-80
2021/04/05 08:11:41;;;;;;;10.63;1.80;;;4.00;87.50;;;;;;5032539;28;20052;-82
2021/04/05 08:14:28;;;;;;;11.15;1.50;;;3.90;88.10;;;;;;5032033;28;20202;-80
2021/04/05 08:17:15;;;;;;;13.73;1.70;;;3.80;88.00;;;;;;5031207;28;20146;-82
2021/04/05 08:19:55;;;;;;;12.25;1.75;;;3.70;88.10;;;;;;5030633;28;20065;-81
2021/04/05 08:22:48;;;;;;;14.23;2.53;;;3.60;87.90;;;;;;5030933;28;20049;-81
2021/04/05 08:25:44;;;;;;;9.63;1.45;;;3.60;87.80;;;;;;5032341;28;20081;-81
2021/04/05 08:28:23;;;;;;;10.55;2.40;;;3.60;87.90;;;;;;5034814;28;20049;-82
2021/04/05 08:31:11;;;;;;;13.02;2.00;;;3.50;89.10;;;;;;5032920;28;20482;-80
2021/04/05 08:33:58;;;;;;;12.13;1.88;;;3.60;88.30;;;;;;5004415;28;20075;-80
2021/04/05 08:36:51;;;;;;;10.93;1.65;;;3.50;87.90;;;;;;5034941;28;20132;-80
2021/04/05 08:39:43;;;;;;;13.60;3.03;;;3.50;88.70;;;;;;5034907;28;20072;-80
2021/04/05 08:42:20;;;;;;;11.85;2.05;;;3.50;89.60;;;;;;5033902;28;20077;-81
2021/04/05 08:44:54;;;;;;;13.02;2.13;;;3.60;89.50;;;;;;5024497;28;20042;-83
2021/04/05 08:47:28;;;;;;;13.43;2.28;;;3.60;89.50;;;;;;5013740;28;20056;-81
2021/04/05 08:50:00;;;;;;;16.30;2.40;;;3.70;89.50;;;;;;5014462;28;20061;-81
2021/04/05 08:52:30;;;;;;;14.57;2.15;;;3.70;89.70;;;;;;5025420;28;20140;-82
2021/04/05 08:55:03;;;;;;;14.98;2.17;;;3.70;89.70;;;;;;5033330;28;20076;-84
2021/04/05 08:57:36;;;;;;;13.45;2.40;;;3.80;88.90;;;;;;5017045;28;20061;-80
2021/04/05 09:00:11;;;;;;;11.85;2.40;;;3.80;88.60;;;;;;5014635;28;20058;-80
2021/04/05 09:02:38;;;;;;;14.18;2.40;;;3.80;87.90;;;;;;5013815;28;20057;-81
2021/04/05 09:05:10;;;;;;;14.88;2.10;;;3.90;87.80;;;;;;5015353;28;20413;-81
2021/04/05 09:08:06;;;;;;;11.65;2.00;;;3.80;87.30;;;;;;5014357;28;20050;-81
2021/04/05 09:10:52;;;;;;;15.57;2.85;;;3.80;87.10;;;;;;5014673;28;20054;-81
2021/04/05 09:13:39;;;;;;;12.18;1.75;;;3.80;87.10;;;;;;5013754;28;20406;-82
2021/04/05 09:16:29;;;;;;;13.25;2.10;;;3.80;87.10;;;;;;5014217;28;20045;-82
2021/04/05 09:19:19;;;;;;;12.07;1.83;;;3.80;87.30;;;;;;5027927;28;20037;-82
2021/04/05 09:22:03;;;;;;;11.82;1.80;;;3.80;87.50;;;;;;5033567;28;20490;-82
2021/04/05 09:25:13;;;;;;;10.32;1.50;;;3.80;86.90;;;;;;5033918;28;20076;-82
2021/04/05 09:28:03;;;;;;;15.45;2.47;;;3.80;86.50;;;;;;5014160;28;20111;-82
2021/04/05 09:31:14;;;;;;;11.50;1.92;;;3.90;86.70;;;;;;5027637;28;20099;-82
2021/04/05 09:34:17;;;;;;;14.13;2.05;;;4.00;87.00;;;;;;5033938;28;20073;-81
2021/04/05 09:37:03;;;;;;;13.68;1.98;;;4.10;86.30;;;;;;5032718;28;20564;-82
2021/04/05 09:39:51;;;;;;;17.55;2.10;;;4.10;84.50;;;;;;5033118;28;20049;-82
2021/04/05 09:42:55;;;;;;;12.70;2.35;;;4.10;85.60;;;;;;5033431;28;20045;-83
2021/04/05 09:45:34;;;;;;;11.00;2.22;;;4.20;83.10;;;;;;5032871;28;20512;-82
2021/04/05 09:48:11;;;;;;;13.02;1.92;;;4.20;83.80;;;;;;5033019;28;20417;-82
2021/04/05 09:50:55;;;;;;;15.80;2.00;;;4.30;83.00;;;;;;5032397;28;20061;-83
2021/04/05 09:53:47;;;;;;;7.95;1.52;;;4.40;82.40;;;;;;5033733;28;20053;-83
2021/04/05 09:56:19;;;;;;;9.25;1.88;;;4.50;81.00;;;;;;5033593;28;20049;-82
2021/04/05 09:58:56;;;;;;;9.63;1.70;;;4.60;80.90;;;;;;5032297;28;20456;-83
2021/04/05 10:01:27;;;;;;;10.00;1.65;;;4.70;80.00;;;;;;5031597;28;20281;-82
2021/04/05 10:04:07;;;;;;;12.55;1.50;;;4.80;80.50;;;;;;5033135;28;20045;-82
2021/04/05 10:06:35;;;;;;;9.45;1.60;;;5.00;79.50;;;;;;5033344;28;20107;-82
2021/04/05 10:09:06;;;;;;;11.13;1.60;;;5.00;78.40;;;;;;5032838;28;20124;-81
2021/04/05 10:11:38;;;;;;;12.45;2.00;;;5.10;77.20;;;;;;5031426;28;20045;-81
2021/04/05 10:14:06;;;;;;;14.88;1.67;;;5.10;76.50;;;;;;5023357;28;20125;-80
2021/04/05 10:16:35;;;;;;;17.17;1.95;;;5.10;75.50;;;;;;5032461;28;20555;-82
2021/04/05 10:19:09;;;;;;;12.35;1.52;;;5.10;76.20;;;;;;5030256;28;20501;-85
2021/04/05 10:21:43;;;;;;;10.30;1.73;;;5.20;75.50;;;;;;5032732;28;20053;-87
2021/04/05 10:24:10;;;;;;;5.55;1.10;;;5.20;76.60;;;;;;5032889;28;20073;-82
2021/04/05 10:26:40;;;;;;;10.77;1.40;;;5.30;73.90;;;;;;5032136;28;20060;-81
2021/04/05 10:29:10;;;;;;;5.97;1.10;;;5.30;74.30;;;;;;5032706;28;20099;-83
2021/04/05 10:31:38;;;;;;;8.90;1.33;;;5.30;73.00;;;;;;5032537;28;20149;-82
2021/04/05 10:34:07;;;;;;;5.82;1.10;;;5.40;73.20;;;;;;5023130;28;20121;-81
2021/04/05 10:37:06;;;;;;;6.20;1.20;;;5.40;71.90;;;;;;5012442;28;20125;-81
2021/04/05 10:39:33;;;;;;;7.43;1.42;;;5.50;69.80;;;;;;5011390;28;20057;-81
2021/04/05 10:42:05;;;;;;;8.02;1.17;;;5.50;71.90;;;;;;5012397;28;20132;-82
2021/04/05 10:44:40;;;;;;;8.70;1.17;;;5.60;72.90;;;;;;5013080;28;20074;-81
2021/04/05 10:47:11;;;;;;;9.13;1.20;;;5.60;71.90;;;;;;5011515;28;20045;-81
2021/04/05 10:49:40;;;;;;;6.82;1.38;;;5.60;71.60;;;;;;5012625;28;20049;-81
2021/04/05 10:52:14;;;;;;;7.57;0.90;;;5.60;69.20;;;;;;5012542;28;20050;-82
2021/04/05 10:54:42;;;;;;;6.70;1.13;;;5.60;69.10;;;;;;5011900;28;20058;-81
2021/04/05 10:57:13;;;;;;;6.70;1.00;;;5.70;69.00;;;;;;5012660;28;20049;-82
2021/04/05 10:59:44;;;;;;;6.45;0.98;;;5.70;69.40;;;;;;5013593;28;20054;-81
2021/04/05 11:02:20;;;;;;;7.15;1.13;;;5.70;71.00;;;;;;5015851;28;20045;-79
2021/04/05 11:04:59;;;;;;;9.45;2.10;;;5.80;70.20;;;;;;5019809;28;20045;-80
2021/04/05 11:07:29;;;;;;;5.13;0.98;;;5.80;70.70;;;;;;5031591;28;20442;-80
2021/04/05 11:09:58;;;;;;;6.18;0.80;;;5.80;69.20;;;;;;5031650;28;20045;-81
2021/04/05 11:12:35;;;;;;;6.05;0.82;;;5.80;68.90;;;;;;5032588;28;20061;-79
2021/04/05 11:15:04;;;;;;;3.92;0.70;;;5.80;69.10;;;;;;5031296;28;20514;-82
2021/04/05 11:17:33;;;;;;;3.22;0.60;;;5.80;69.80;;;;;;5031584;28;20053;-83
2021/04/05 11:20:01;;;;;;;3.55;0.80;;;5.90;69.00;;;;;;5031957;28;20493;-84
2021/04/05 11:22:30;;;;;;;3.45;0.77;;;6.00;67.80;;;;;;5015855;28;20383;-83
2021/04/05 11:25:09;;;;;;;3.60;0.80;;;6.00;68.00;;;;;;5012509;28;20145;-84
2021/04/05 11:27:46;;;;;;;4.43;0.70;;;6.10;66.50;;;;;;5023815;28;20481;-80
2021/04/05 11:30:23;;;;;;;3.17;0.70;;;6.10;67.00;;;;;;5026784;28;20482;-81
2021/04/05 11:32:52;;;;;;;4.10;0.73;;;6.10;68.80;;;;;;5019611;28;20073;-81
2021/04/05 11:35:20;;;;;;;3.08;0.60;;;6.00;70.60;;;;;;5031703;28;20096;-84
2021/04/05 11:37:47;;;;;;;3.13;0.77;;;6.00;71.60;;;;;;5023142;28;20496;-85
2021/04/05 11:40:16;;;;;;;3.92;0.80;;;6.00;72.50;;;;;;5012914;28;20056;-85
2021/04/05 11:42:47;;;;;;;3.45;0.60;;;5.90;73.30;;;;;;5019657;28;20050;-85
2021/04/05 11:45:34;;;;;;;4.28;0.80;;;5.90;74.90;;;;;;5032037;28;20053;-84
2021/04/05 11:48:04;;;;;;;5.78;0.90;;;5.90;76.70;;;;;;5031628;28;20075;-84
2021/04/05 11:50:33;;;;;;;8.80;1.10;;;6.00;77.70;;;;;;5033163;28;20172;-82
2021/04/05 11:53:30;;;;;;;8.27;1.33;;;6.00;77.20;;;;;;5035153;28;20440;-81
2021/04/05 11:56:11;;;;;;;7.47;1.02;;;6.00;77.70;;;;;;5027747;28;20563;-82
2021/04/05 11:58:45;;;;;;;7.70;1.23;;;6.10;76.20;;;;;;5033734;28;20053;-81
2021/04/05 12:01:20;;;;;;;9.48;1.30;;;6.10;76.80;;;;;;5035828;28;20046;-81
2021/04/05 12:03:58;;;;;;;8.68;1.30;;;6.20;76.10;;;;;;5015920;28;20405;-81
2021/04/05 12:06:38;;;;;;;8.25;1.30;;;6.20;76.10;;;;;;5015715;28;20049;-81
2021/04/05 12:09:26;;;;;;;9.50;1.27;;;6.30;73.50;;;;;;5015489;28;20060;-82
2021/04/05 12:11:55;;;;;;;8.02;1.50;;;6.30;71.60;;;;;;5014408;28;20441;-81
2021/04/05 12:14:25;;;;;;;9.48;1.45;;;6.30;71.00;;;;;;5015166;28;20056;-81
2021/04/05 12:16:54;;;;;;;8.75;1.38;;;6.30;68.00;;;;;;5015287;28;20050;-82
2021/04/05 12:19:28;;;;;;;8.02;1.52;;;6.20;68.40;;;;;;5014790;28;20070;-81
2021/04/05 12:22:00;;;;;;;11.85;1.80;;;6.20;67.70;;;;;;5015181;28;20405;-81
2021/04/05 12:24:46;;;;;;;12.80;1.63;;;6.20;68.90;;;;;;5015430;28;20049;-81
2021/04/05 12:27:13;;;;;;;9.77;1.70;;;6.20;68.00;;;;;;5016285;28;20060;-81
2021/04/05 12:29:43;;;;;;;9.63;1.38;;;6.20;69.50;;;;;;5015473;28;20058;-82
2021/04/05 12:32:17;;;;;;;8.00;1.20;;;6.10;70.10;;;;;;5019027;28;20073;-82
2021/04/05 12:34:44;;;;;;;14.98;3.22;;;6.00;69.80;;;;;;5034678;28;20080;-80
2021/04/05 12:37:16;;;;;;;8.45;1.98;;;5.80;70.40;;;;;;5035000;28;20073;-82
2021/04/05 12:39:54;;;;;;;8.85;1.40;;;5.50;72.00;;;;;;5034037;28;20060;-81
2021/04/05 12:42:21;;;;;;;8.43;1.30;;;5.30;72.60;;;;;;5031830;28;20052;-81
2021/04/05 12:44:55;;;;;;;6.82;1.40;;;5.10;74.10;;;;;;5014539;28;20081;-81
2021/04/05 12:47:32;;;;;;;5.25;1.10;;;5.00;75.40;;;;;;5019719;28;20051;-81
2021/04/05 12:50:05;;;;;;;6.78;1.40;;;5.00;76.70;;;;;;5034300;28;20058;-81
2021/04/05 12:52:39;;;;;;;9.15;1.15;;;5.10;76.90;;;;;;5034722;28;20057;-81
2021/04/05 12:55:27;;;;;;;6.57;1.30;;;5.10;76.60;;;;;;5033386;28;20580;-81
2021/04/05 12:57:57;;;;;;;6.88;1.52;;;5.20;77.00;;;;;;5034292;28;20053;-81
2021/04/05 13:00:25;;;;;;;7.18;1.60;;;5.20;76.90;;;;;;5033266;28;20107;-81
2021/04/05 13:03:04;;;;;;;6.35;1.20;;;5.20;76.40;;;;;;5034253;28;20045;-82
2021/04/05 13:05:42;;;;;;;6.38;1.20;;;5.30;76.30;;;;;;5034766;28;20118;-81
2021/04/05 13:08:40;;;;;;;5.55;1.15;;;5.30;76.40;;;;;;5031874;28;20053;-81
2021/04/05 13:11:18;;;;;;;4.88;1.00;;;5.30;77.10;;;;;;5030955;28;20053;-81
2021/04/05 13:13:51;;;;;;;5.65;1.25;;;5.40;77.20;;;;;;5034155;28;20053;-81
2021/04/05 13:16:38;;;;;;;7.03;1.10;;;5.50;77.30;;;;;;5034319;28;20057;-81
2021/04/05 13:19:12;;;;;;;7.38;0.90;;;5.60;77.30;;;;;;5033825;28;20460;-81
2021/04/05 13:21:41;;;;;;;4.25;0.82;;;5.70;75.60;;;;;;5033656;28;20064;-81
2021/04/05 13:24:21;;;;;;;5.53;0.98;;;5.80;76.60;;;;;;5033856;28;20409;-80
2021/04/05 13:26:55;;;;;;;5.57;0.90;;;5.90;75.70;;;;;;5031176;28;20060;-81
2021/04/05 13:29:29;;;;;;;9.60;1.35;;;6.00;76.00;;;;;;5024484;28;20038;-81
2021/04/05 13:31:58;;;;;;;6.60;1.00;;;6.00;74.90;;;;;;5031349;28;20049;-79
2021/04/05 13:34:28;;;;;;;7.00;1.20;;;6.00;73.10;;;;;;5019224;28;20481;-81
2021/04/05 13:36:56;;;;;;;10.88;1.30;;;5.90;73.00;;;;;;5030998;28;20056;-80
2021/04/05 13:39:27;;;;;;;3.97;0.82;;;5.80;73.50;;;;;;5033240;28;20053;-80
2021/04/05 13:42:10;;;;;;;7.75;1.63;;;5.70;74.60;;;;;;5032061;28;20072;-80
2021/04/05 13:44:38;;;;;;;7.22;1.00;;;5.60;74.50;;;;;;5019312;28;20072;-81